To NAV CANADA Home Page Login to a new session Search on AWWS site Feedback and Comments Disclaimer Vers la page française équivalente Tips FAQ What's new on the site To the Forecasts and Observations / NOTAM section To "File a Flight Plan" website Publications and other links Update of the User's profile FIC Telephone Numbers My Weather Data Folder Route Weather Data Regional Weather Data Local Weather Data To the Forecasts and Observations / NOTAM section
Request Generated 04/24/2014 at 14:49:06 UTC . Weather information available at that time is displayed.

METAR/TAF

MARYS HARBOUR/NL    

METAR CYMH 241400Z 03011G17KT 15SM OVC024 00/M03 A3007 RMK SC8
SLP183=
METAR CYMH 241300Z 03013KT 15SM OVC024 M00/M03 A3006 RMK SC8 SLP181=
METAR CYMH 241200Z 04011G18KT 15SM OVC020 M01/M04 A3006 RMK SC8
SLP180=

TAF CYMH 241339Z 2414/2502 04012KT P6SM OVC025 TEMPO 2414/2423 4SM
-SHSN OVC015
BECMG 2414/2416 04015G25KT
FM242300 04012G22KT 6SM -SN BR OVC012 TEMPO 2423/2502 2SM -FZDZ
BR OVC007
RMK NXT FCST BY 242000Z=
Your time UTC time
Weather data provided by Environment Canada and NAV CANADA